AirNav   Air Wisconsin Up To $57,000 Bonus
 
 892 users online  

4M2 Booneville Municipal Airport
Booneville, Arkansas, USA

GOING TO BOONEVILLE?


FAA INFORMATION EFFECTIVE 09 SEPTEMBER 2021

Location

FAA Identifier: 4M2
Lat/Long: 35-08-58.2948N 093-51-48.2024W
35-08.971580N 093-51.803373W
35.1495263,-93.8633896
(estimated)
Elevation: 467.8 ft. / 142.6 m (surveyed)
Variation: 05E (1985)
From city: 3 miles E of BOONEVILLE, AR
Time zone: UTC -5 (UTC -6 during Standard Time)
Zip code: 72927

Airport Operations

Airport use: Open to the public
Activation date: 06/1966
Control tower: no
ARTCC: MEMPHIS CENTER
FSS: JONESBORO FLIGHT SERVICE STATION
NOTAMs facility: JBR (NOTAM-D service available)
Attendance: MON-FRI 0800-1700
Wind indicator: yes
Segmented circle: yes
Lights: ACTVT MIRL RY 09/27 - CTAF.
Beacon: white-green (lighted land airport)
Operates sunset to sunrise.

Airport Communications

CTAF/UNICOM: 122.8

Nearby radio navigation aids

VOR radial/distance  VOR name  Freq  Var
FSMr119/24.6FORT SMITH VORTAC110.4007E

 
NDB name  Hdg/Dist  Freq  Var  ID
RUSSELLVILLE257/38.237903ERUE .-. ..- .

Airport Services

Fuel available: 100LL
100LL:SELF-SERVE FUEL AVBL 24 HRS WITH CREDIT CARD.
Parking: hangars and tiedowns
Airframe service: MAJOR
Powerplant service: MAJOR
Bottled oxygen: NONE
Bulk oxygen: NONE

Runway Information

Runway 9/27

Dimensions: 3254 x 50 ft. / 992 x 15 m
Surface: asphalt, in good condition
Runway edge lights: medium intensity
RUNWAY 9  RUNWAY 27
Latitude: 35-08.976210N35-08.966948N
Longitude: 093-52.129762W093-51.476983W
Elevation: 466.0 ft.446.5 ft.
Traffic pattern: leftleft
Runway heading: 086 magnetic, 091 true266 magnetic, 271 true
Markings: basic, in good conditionbasic, in good condition
Touchdown point: yes, no lightsyes, no lights
Obstructions: 36 ft. trees, 600 ft. from runway, 180 ft. right of centerline, 10:1 slope to clear21 ft. trees, 275 ft. from runway, 3:1 slope to clear

Airport Ownership and Management from official FAA records

Ownership: Publicly-owned
Owner: CITY OF BOONVILLE
CITY HALL 497 EAST MAIN, SUITE A
BOONEVILLE, AR 72927
Phone 479-675-3811
Manager: BILL TUCKER
PO BOX 912
BOONEVILLE, AR 72927
Phone 479-518-5890

Airport Operational Statistics

Aircraft based on the field: 22
Single engine airplanes: 20
Multi engine airplanes: 1
Ultralights: 1
    
Aircraft operations: avg 105/week *
73% local general aviation
27% transient general aviation
* for 12-month period ending 31 August 2020

Additional Remarks

FOR CD CTC RAZORBACK APCH AT 479-649-2416, WHEN APCH CLSD CTC MEMPHIS ARTCC AT 901-368-8453/8449.

Instrument Procedures

There are no published instrument procedures at 4M2.

Some nearby airports with instrument procedures:

7M5 - Ozark-Franklin County Airport (22 nm N)
32A - Danville Municipal Airport (22 nm E)
KFSM - Fort Smith Regional Airport (27 nm NW)
H35 - Clarksville Municipal Airport (29 nm NE)
KRKR - Robert S Kerr Airport (38 nm W)
 
Loc | Ops | Rwys | IFR | FBO | Links
Com | Nav | Svcs | Stats | Notes
Area around 4M2 (Booneville Municipal Airport)
 
Road maps at: MapQuest Bing Google
 
Aerial photo
WARNING: Photo may not be current or correct
Aerial photo of 4M2 (Booneville Municipal Airport)
Photo courtesy of the Arkansas Department of Aeronautics
Taken in the Spring of 2007

Do you have a better or more recent aerial photo of Booneville Municipal Airport that you would like to share? If so, please send us your photo.

 
Sectional chart

 
Airport distance calculator
Flying to Booneville Municipal Airport? Find the distance to fly.

From to 4M2

Sunrise and sunset
Times for 24-Sep-2021
 Local
(UTC-5)
 Zulu
(UTC)
Morning civil twilight06:4111:41
Sunrise07:0612:06
Sunset19:0900:09
Evening civil twilight19:3400:34

Current date and time
Zulu (UTC)  25-Sep-2021 02:40:54
Local (UTC-5)  24-Sep-2021 21:40:54
 
METAR
KFSM 
27nm NW 
250153Z 00000KT 10SM CLR 21/10 A3004 RMK AO2 SLP168 T02110100
KRKR 
38nm W 
250215Z AUTO 00000KT 10SM CLR 16/10 A3005 RMK AO2
KRUE 
38nm E 
250153Z AUTO 00000KT 10SM CLR 17/13 A3004 RMK AO2 SLP168 T01720133
KMWT 
39nm S 
250153Z AUTO 00000KT 10SM CLR 17/10 A3004 RMK AO2 SLP172 T01670100
KMEZ 
40nm SW 
250215Z AUTO 00000KT 10SM CLR 16/12 A3009 RMK AO2
KJSV 
49nm W 
250215Z AUTO 00000KT 10SM CLR 17/10 A3004 RMK AO2
TAF
KFSM 
27nm NW 
241730Z 2418/2518 21007KT P6SM SCT250 FM250100 VRB03KT P6SM SCT250
NOTAMs
Click for the latest NOTAMs
NOTAMs are issued by the DoD/FAA and will open in a separate window not controlled by AirNav.

 

 
 

FBO, Fuel Providers, and Aircraft Ground Support

  
 Business Name 
 
 Contact 
 
 Services / Description 
 
Fuel Prices
 
Comments
  
Booneville Municipal Airport 479-675-3070
[web site]
[email]
Aviation fuel, Oxygen service, Aircraft parking (ramp or tiedown), Flight training, Aircraft maintenance, Aircraft modifications, Pilot supplies, Courtesy transportation, ...

More info about Booneville Municipal Airport
independent
100LL
SS $4.42 
 Updated 03-Aug-2021
 
   1 read write
SS=Self service
Update Fuel Prices
 

Would you like to see your business listed on this page?

 If your business provides an interesting product or service to pilots, flight crews, aircraft, or users of the Booneville Municipal Airport, you should consider listing it here.  To start the listing process, click on the button below
 
Add a business
 

Other Pages about Booneville Municipal Airport

www.boonevilleairport.com
 
Update a link
 
Copyright © AirNav, LLC. All rights reserved. Privacy Policy  Contact